sensor_id;sensor_type;location;lat;lon;timestamp;pressure;altitude;pressure_sealevel;temperature;humidity
58072;BME280;60383;46.626;18.866;2022-08-18T00:02:09;99888.69;;;25.13;43.90
58072;BME280;60383;46.626;18.866;2022-08-18T00:04:36;99887.91;;;25.18;43.81
58072;BME280;60383;46.626;18.866;2022-08-18T00:07:03;99894.28;;;25.08;44.91
58072;BME280;60383;46.626;18.866;2022-08-18T00:09:28;99886.06;;;25.01;45.83
58072;BME280;60383;46.626;18.866;2022-08-18T00:11:54;99886.00;;;24.91;46.09
58072;BME280;60383;46.626;18.866;2022-08-18T00:14:20;99888.84;;;24.96;46.44
58072;BME280;60383;46.626;18.866;2022-08-18T00:16:45;99885.19;;;24.96;46.29
58072;BME280;60383;46.626;18.866;2022-08-18T00:19:11;99881.19;;;24.86;46.25
58072;BME280;60383;46.626;18.866;2022-08-18T00:21:37;99880.28;;;24.81;46.13
58072;BME280;60383;46.626;18.866;2022-08-18T00:24:03;99885.09;;;24.85;45.90
58072;BME280;60383;46.626;18.866;2022-08-18T00:26:28;99880.91;;;24.88;46.03
58072;BME280;60383;46.626;18.866;2022-08-18T00:28:56;99879.94;;;24.72;47.38
58072;BME280;60383;46.626;18.866;2022-08-18T00:31:21;99876.53;;;24.70;47.70
58072;BME280;60383;46.626;18.866;2022-08-18T00:33:48;99883.84;;;24.71;50.20
58072;BME280;60383;46.626;18.866;2022-08-18T00:36:14;99877.41;;;24.70;49.15
58072;BME280;60383;46.626;18.866;2022-08-18T00:38:40;99881.16;;;24.59;47.92
58072;BME280;60383;46.626;18.866;2022-08-18T00:41:06;99882.53;;;24.56;47.87
58072;BME280;60383;46.626;18.866;2022-08-18T00:43:34;99883.59;;;24.50;47.84
58072;BME280;60383;46.626;18.866;2022-08-18T00:46:07;99882.13;;;24.43;48.20
58072;BME280;60383;46.626;18.866;2022-08-18T00:48:34;99888.69;;;24.31;47.46
58072;BME280;60383;46.626;18.866;2022-08-18T00:51:03;99890.06;;;24.29;46.97
58072;BME280;60383;46.626;18.866;2022-08-18T00:54:13;99889.09;;;24.18;47.38
58072;BME280;60383;46.626;18.866;2022-08-18T00:56:24;99898.53;;;24.12;46.78
58072;BME280;60383;46.626;18.866;2022-08-18T00:58:58;99898.03;;;24.15;46.42
58072;BME280;60383;46.626;18.866;2022-08-18T01:01:26;99901.59;;;24.10;46.75
58072;BME280;60383;46.626;18.866;2022-08-18T01:03:54;99903.09;;;23.96;47.02
58072;BME280;60383;46.626;18.866;2022-08-18T01:06:25;99897.81;;;23.99;46.65
58072;BME280;60383;46.626;18.866;2022-08-18T01:08:53;99895.97;;;23.88;46.91
58072;BME280;60383;46.626;18.866;2022-08-18T01:11:20;99900.97;;;23.86;46.80
58072;BME280;60383;46.626;18.866;2022-08-18T01:13:46;99903.94;;;23.79;47.10
58072;BME280;60383;46.626;18.866;2022-08-18T01:16:13;99892.09;;;23.72;47.29
58072;BME280;60383;46.626;18.866;2022-08-18T01:18:57;99901.84;;;23.69;47.39
58072;BME280;60383;46.626;18.866;2022-08-18T01:21:42;99892.31;;;23.65;47.53
58072;BME280;60383;46.626;18.866;2022-08-18T01:24:20;99897.81;;;23.60;47.63
58072;BME280;60383;46.626;18.866;2022-08-18T01:27:08;99896.97;;;23.59;47.76
58072;BME280;60383;46.626;18.866;2022-08-18T01:29:34;99892.41;;;23.53;47.85
58072;BME280;60383;46.626;18.866;2022-08-18T01:32:01;99907.31;;;23.59;47.65
58072;BME280;60383;46.626;18.866;2022-08-18T01:34:26;99908.13;;;23.59;47.78
58072;BME280;60383;46.626;18.866;2022-08-18T01:36:52;99901.97;;;23.57;47.86
58072;BME280;60383;46.626;18.866;2022-08-18T01:39:19;99901.72;;;23.59;47.85
58072;BME280;60383;46.626;18.866;2022-08-18T01:41:45;99903.06;;;23.56;48.68
58072;BME280;60383;46.626;18.866;2022-08-18T01:44:10;99901.44;;;23.60;49.22
58072;BME280;60383;46.626;18.866;2022-08-18T01:46:38;99901.72;;;23.59;50.89
58072;BME280;60383;46.626;18.866;2022-08-18T01:49:06;99906.72;;;23.57;51.66
58072;BME280;60383;46.626;18.866;2022-08-18T01:51:32;99905.47;;;23.48;51.33
58072;BME280;60383;46.626;18.866;2022-08-18T01:54:02;99903.16;;;23.44;51.98
58072;BME280;60383;46.626;18.866;2022-08-18T01:56:28;99914.16;;;23.34;51.81
58072;BME280;60383;46.626;18.866;2022-08-18T01:58:55;99914.09;;;23.29;52.73
58072;BME280;60383;46.626;18.866;2022-08-18T02:01:21;99915.13;;;23.23;52.58
58072;BME280;60383;46.626;18.866;2022-08-18T02:03:48;99921.47;;;23.18;52.96
58072;BME280;60383;46.626;18.866;2022-08-18T02:06:15;99917.19;;;23.16;53.12
58072;BME280;60383;46.626;18.866;2022-08-18T02:08:44;99909.56;;;23.11;52.68
58072;BME280;60383;46.626;18.866;2022-08-18T02:11:10;99909.16;;;23.02;51.79
58072;BME280;60383;46.626;18.866;2022-08-18T02:13:35;99916.34;;;22.98;51.62
58072;BME280;60383;46.626;18.866;2022-08-18T02:16:01;99912.69;;;22.97;50.91
58072;BME280;60383;46.626;18.866;2022-08-18T02:18:28;99912.63;;;22.92;51.05
58072;BME280;60383;46.626;18.866;2022-08-18T02:20:54;99924.53;;;22.88;50.60
58072;BME280;60383;46.626;18.866;2022-08-18T02:23:20;99924.53;;;22.88;50.66
58072;BME280;60383;46.626;18.866;2022-08-18T02:25:45;99922.69;;;22.93;50.29
58072;BME280;60383;46.626;18.866;2022-08-18T02:28:11;99914.06;;;22.95;50.19
58072;BME280;60383;46.626;18.866;2022-08-18T02:30:37;99918.19;;;22.92;50.16
58072;BME280;60383;46.626;18.866;2022-08-18T02:33:06;99915.94;;;22.89;49.95
58072;BME280;60383;46.626;18.866;2022-08-18T02:35:31;99914.13;;;22.83;49.75
58072;BME280;60383;46.626;18.866;2022-08-18T02:37:58;99905.16;;;22.81;49.69
58072;BME280;60383;46.626;18.866;2022-08-18T02:40:23;99905.72;;;22.66;50.11
58072;BME280;60383;46.626;18.866;2022-08-18T02:42:48;99905.13;;;22.64;49.80
58072;BME280;60383;46.626;18.866;2022-08-18T02:45:16;99899.31;;;22.65;50.47
58072;BME280;60383;46.626;18.866;2022-08-18T02:47:41;99902.69;;;22.68;51.06
58072;BME280;60383;46.626;18.866;2022-08-18T02:50:07;99903.53;;;22.68;52.14
58072;BME280;60383;46.626;18.866;2022-08-18T02:52:33;99906.31;;;22.68;52.73
58072;BME280;60383;46.626;18.866;2022-08-18T02:54:59;99907.28;;;22.74;52.42
58072;BME280;60383;46.626;18.866;2022-08-18T02:57:28;99910.94;;;22.62;51.54
58072;BME280;60383;46.626;18.866;2022-08-18T02:59:53;99908.06;;;22.57;50.54
58072;BME280;60383;46.626;18.866;2022-08-18T03:02:19;99903.22;;;22.53;50.84
58072;BME280;60383;46.626;18.866;2022-08-18T03:04:45;99906.28;;;22.51;53.37
58072;BME280;60383;46.626;18.866;2022-08-18T03:07:11;99916.34;;;22.52;54.45
58072;BME280;60383;46.626;18.866;2022-08-18T03:09:36;99908.59;;;22.54;55.14
58072;BME280;60383;46.626;18.866;2022-08-18T03:12:02;99910.69;;;22.47;57.23
58072;BME280;60383;46.626;18.866;2022-08-18T03:14:27;99915.91;;;22.43;57.12
58072;BME280;60383;46.626;18.866;2022-08-18T03:16:53;99914.22;;;22.30;57.03
58072;BME280;60383;46.626;18.866;2022-08-18T03:19:18;99914.31;;;22.36;56.57
58072;BME280;60383;46.626;18.866;2022-08-18T03:21:44;99916.03;;;22.25;55.56
58072;BME280;60383;46.626;18.866;2022-08-18T03:24:10;99926.25;;;22.19;54.49
58072;BME280;60383;46.626;18.866;2022-08-18T03:26:38;99916.69;;;22.15;53.62
58072;BME280;60383;46.626;18.866;2022-08-18T03:29:04;99914.16;;;22.13;53.88
58072;BME280;60383;46.626;18.866;2022-08-18T03:31:29;99920.06;;;22.17;53.83
58072;BME280;60383;46.626;18.866;2022-08-18T03:33:56;99925.19;;;22.08;54.24
58072;BME280;60383;46.626;18.866;2022-08-18T03:36:23;99931.97;;;22.12;55.38
58072;BME280;60383;46.626;18.866;2022-08-18T03:38:49;99928.47;;;22.05;56.54
58072;BME280;60383;46.626;18.866;2022-08-18T03:41:15;99929.69;;;22.09;57.32
58072;BME280;60383;46.626;18.866;2022-08-18T03:43:41;99943.97;;;22.13;58.39
58072;BME280;60383;46.626;18.866;2022-08-18T03:46:08;99939.13;;;22.08;58.26
58072;BME280;60383;46.626;18.866;2022-08-18T03:48:38;99926.00;;;22.21;58.05
58072;BME280;60383;46.626;18.866;2022-08-18T03:51:09;99931.97;;;22.12;56.63
58072;BME280;60383;46.626;18.866;2022-08-18T03:53:35;99935.81;;;22.23;56.93
58072;BME280;60383;46.626;18.866;2022-08-18T03:56:00;99934.63;;;22.19;58.07
58072;BME280;60383;46.626;18.866;2022-08-18T03:58:26;99933.59;;;22.37;58.78
58072;BME280;60383;46.626;18.866;2022-08-18T04:00:51;99935.88;;;22.52;59.02
58072;BME280;60383;46.626;18.866;2022-08-18T04:03:16;99937.06;;;22.56;59.07
58072;BME280;60383;46.626;18.866;2022-08-18T04:05:41;99933.41;;;22.68;58.53
58072;BME280;60383;46.626;18.866;2022-08-18T04:08:07;99930.28;;;22.81;58.10
58072;BME280;60383;46.626;18.866;2022-08-18T04:10:32;99925.81;;;22.97;57.35
58072;BME280;60383;46.626;18.866;2022-08-18T04:12:59;99925.34;;;23.17;56.05
58072;BME280;60383;46.626;18.866;2022-08-18T04:15:24;99925.94;;;23.36;55.49
58072;BME280;60383;46.626;18.866;2022-08-18T04:17:50;99934.66;;;23.57;57.04
58072;BME280;60383;46.626;18.866;2022-08-18T04:20:15;99934.63;;;23.74;57.34
58072;BME280;60383;46.626;18.866;2022-08-18T04:22:40;99933.72;;;23.68;57.79
58072;BME280;60383;46.626;18.866;2022-08-18T04:25:06;99938.88;;;23.59;58.06
58072;BME280;60383;46.626;18.866;2022-08-18T04:27:35;99932.53;;;23.47;58.35
58072;BME280;60383;46.626;18.866;2022-08-18T04:30:03;99933.97;;;23.50;58.48
58072;BME280;60383;46.626;18.866;2022-08-18T04:32:29;99941.88;;;23.53;58.30
58072;BME280;60383;46.626;18.866;2022-08-18T04:34:54;99941.53;;;23.32;59.32
58072;BME280;60383;46.626;18.866;2022-08-18T04:37:19;99936.25;;;23.02;60.05
58072;BME280;60383;46.626;18.866;2022-08-18T04:39:45;99940.25;;;22.77;62.13
58072;BME280;60383;46.626;18.866;2022-08-18T04:42:10;99931.22;;;23.04;61.62
58072;BME280;60383;46.626;18.866;2022-08-18T04:44:35;99942.91;;;23.29;60.92
58072;BME280;60383;46.626;18.866;2022-08-18T04:47:02;99942.09;;;23.51;60.66
58072;BME280;60383;46.626;18.866;2022-08-18T04:49:27;99934.81;;;23.67;60.19
58072;BME280;60383;46.626;18.866;2022-08-18T04:51:54;99937.41;;;23.74;60.14
58072;BME280;60383;46.626;18.866;2022-08-18T04:54:38;99942.09;;;23.68;60.80
58072;BME280;60383;46.626;18.866;2022-08-18T04:57:08;99951.56;;;23.84;60.54
58072;BME280;60383;46.626;18.866;2022-08-18T04:59:33;99947.47;;;23.92;59.99
58072;BME280;60383;46.626;18.866;2022-08-18T05:01:59;99943.66;;;23.98;59.53
58072;BME280;60383;46.626;18.866;2022-08-18T05:04:25;99942.13;;;24.07;59.20
58072;BME280;60383;46.626;18.866;2022-08-18T05:06:52;99938.47;;;24.07;59.36
58072;BME280;60383;46.626;18.866;2022-08-18T05:09:18;99940.56;;;24.17;58.91
58072;BME280;60383;46.626;18.866;2022-08-18T05:11:43;99936.16;;;24.21;58.76
58072;BME280;60383;46.626;18.866;2022-08-18T05:14:08;99928.13;;;24.30;58.78
58072;BME280;60383;46.626;18.866;2022-08-18T05:16:35;99932.16;;;24.39;58.53
58072;BME280;60383;46.626;18.866;2022-08-18T05:19:07;99937.81;;;24.44;56.19
58072;BME280;60383;46.626;18.866;2022-08-18T05:21:33;99932.81;;;24.46;51.99
58072;BME280;60383;46.626;18.866;2022-08-18T05:24:00;99930.91;;;24.52;51.81
58072;BME280;60383;46.626;18.866;2022-08-18T05:26:26;99933.50;;;24.59;52.16
58072;BME280;60383;46.626;18.866;2022-08-18T05:28:52;99926.81;;;24.60;53.07
58072;BME280;60383;46.626;18.866;2022-08-18T05:31:18;99940.97;;;24.26;55.20
58072;BME280;60383;46.626;18.866;2022-08-18T05:33:44;99933.47;;;24.53;54.12
58072;BME280;60383;46.626;18.866;2022-08-18T05:36:17;99937.81;;;24.66;52.22
58072;BME280;60383;46.626;18.866;2022-08-18T05:41:33;99929.91;;;24.85;51.60
58072;BME280;60383;46.626;18.866;2022-08-18T05:44:00;99938.25;;;24.58;51.60
58072;BME280;60383;46.626;18.866;2022-08-18T05:48:57;99953.41;;;25.12;49.71
58072;BME280;60383;46.626;18.866;2022-08-18T05:51:34;99961.53;;;25.13;50.07
58072;BME280;60383;46.626;18.866;2022-08-18T05:54:01;99973.31;;;25.43;49.61
58072;BME280;60383;46.626;18.866;2022-08-18T05:56:45;99970.91;;;25.57;49.67
58072;BME280;60383;46.626;18.866;2022-08-18T05:59:12;99966.91;;;25.85;48.98
58072;BME280;60383;46.626;18.866;2022-08-18T06:01:41;99972.78;;;25.83;48.27
58072;BME280;60383;46.626;18.866;2022-08-18T06:04:56;99970.59;;;25.91;47.39
58072;BME280;60383;46.626;18.866;2022-08-18T06:06:56;99979.31;;;25.94;47.82
58072;BME280;60383;46.626;18.866;2022-08-18T06:09:37;99984.66;;;26.01;48.16
58072;BME280;60383;46.626;18.866;2022-08-18T06:12:15;99970.66;;;26.06;49.90
58072;BME280;60383;46.626;18.866;2022-08-18T06:14:42;99967.44;;;26.25;48.93
58072;BME280;60383;46.626;18.866;2022-08-18T06:17:15;99975.28;;;26.23;48.85
58072;BME280;60383;46.626;18.866;2022-08-18T06:19:46;99971.53;;;26.07;51.53
58072;BME280;60383;46.626;18.866;2022-08-18T06:25:05;99964.84;;;26.13;50.31
58072;BME280;60383;46.626;18.866;2022-08-18T06:35:33;99970.38;;;26.61;48.90
58072;BME280;60383;46.626;18.866;2022-08-18T06:40:45;99963.00;;;26.39;47.68
58072;BME280;60383;46.626;18.866;2022-08-18T06:43:12;99958.53;;;26.43;47.45
58072;BME280;60383;46.626;18.866;2022-08-18T06:45:39;99952.41;;;26.67;46.10
58072;BME280;60383;46.626;18.866;2022-08-18T06:48:09;99946.34;;;27.12;43.32
58072;BME280;60383;46.626;18.866;2022-08-18T06:56:44;99947.19;;;27.02;44.73
58072;BME280;60383;46.626;18.866;2022-08-18T06:59:15;99936.78;;;27.02;45.10
58072;BME280;60383;46.626;18.866;2022-08-18T07:01:41;99950.88;;;27.44;44.61
58072;BME280;60383;46.626;18.866;2022-08-18T07:04:07;99964.38;;;27.62;43.51
58072;BME280;60383;46.626;18.866;2022-08-18T07:06:32;99951.13;;;27.83;43.13
58072;BME280;60383;46.626;18.866;2022-08-18T07:09:18;99960.34;;;28.15;42.40
58072;BME280;60383;46.626;18.866;2022-08-18T07:14:27;99957.59;;;27.89;42.12
58072;BME280;60383;46.626;18.866;2022-08-18T07:17:27;99957.81;;;28.03;42.00
58072;BME280;60383;46.626;18.866;2022-08-18T07:19:53;99953.06;;;27.93;42.10
58072;BME280;60383;46.626;18.866;2022-08-18T07:22:19;99950.81;;;28.05;42.21
58072;BME280;60383;46.626;18.866;2022-08-18T07:24:48;99955.22;;;28.32;41.45
58072;BME280;60383;46.626;18.866;2022-08-18T07:27:15;99948.84;;;28.66;41.16
58072;BME280;60383;46.626;18.866;2022-08-18T07:29:57;99947.06;;;28.91;40.69
58072;BME280;60383;46.626;18.866;2022-08-18T07:32:24;99948.53;;;28.78;40.06
58072;BME280;60383;46.626;18.866;2022-08-18T07:34:52;99950.03;;;29.05;40.43
58072;BME280;60383;46.626;18.866;2022-08-18T07:37:23;99952.06;;;29.39;39.61
58072;BME280;60383;46.626;18.866;2022-08-18T07:42:50;99955.88;;;29.83;40.54
58072;BME280;60383;46.626;18.866;2022-08-18T07:50:12;99968.44;;;30.01;37.28
58072;BME280;60383;46.626;18.866;2022-08-18T07:52:39;99976.41;;;30.42;36.82
58072;BME280;60383;46.626;18.866;2022-08-18T07:57:36;99978.19;;;30.63;35.78
58072;BME280;60383;46.626;18.866;2022-08-18T08:07:25;99984.94;;;31.05;35.42
58072;BME280;60383;46.626;18.866;2022-08-18T08:14:46;99987.81;;;31.57;33.85
58072;BME280;60383;46.626;18.866;2022-08-18T08:20:18;99975.41;;;31.72;32.60
58072;BME280;60383;46.626;18.866;2022-08-18T08:30:51;99961.59;;;31.84;33.01
58072;BME280;60383;46.626;18.866;2022-08-18T08:33:27;99959.09;;;32.11;32.38
58072;BME280;60383;46.626;18.866;2022-08-18T08:36:12;99960.34;;;32.18;32.14
58072;BME280;60383;46.626;18.866;2022-08-18T08:41:12;99960.59;;;32.64;32.16
58072;BME280;60383;46.626;18.866;2022-08-18T08:43:52;99959.09;;;32.80;31.85
58072;BME280;60383;46.626;18.866;2022-08-18T08:46:22;99958.19;;;33.08;31.20
58072;BME280;60383;46.626;18.866;2022-08-18T08:48:51;99963.78;;;33.22;30.68
58072;BME280;60383;46.626;18.866;2022-08-18T08:53:46;99956.72;;;33.33;30.31
58072;BME280;60383;46.626;18.866;2022-08-18T08:56:14;99959.69;;;33.51;30.65
58072;BME280;60383;46.626;18.866;2022-08-18T09:01:11;99953.97;;;33.96;30.72
58072;BME280;60383;46.626;18.866;2022-08-18T09:03:44;99957.19;;;33.49;29.70
58072;BME280;60383;46.626;18.866;2022-08-18T09:11:50;99946.59;;;33.64;29.21
58072;BME280;60383;46.626;18.866;2022-08-18T09:22:03;99940.53;;;34.68;27.77
58072;BME280;60383;46.626;18.866;2022-08-18T09:24:44;99942.75;;;34.89;26.66
58072;BME280;60383;46.626;18.866;2022-08-18T09:27:12;99944.91;;;34.92;25.91
58072;BME280;60383;46.626;18.866;2022-08-18T09:29:46;99942.22;;;35.05;26.18
58072;BME280;60383;46.626;18.866;2022-08-18T09:37:19;99932.66;;;35.62;24.92
58072;BME280;60383;46.626;18.866;2022-08-18T09:42:51;99920.47;;;35.17;25.62
58072;BME280;60383;46.626;18.866;2022-08-18T09:52:51;99902.25;;;36.31;24.52
58072;BME280;60383;46.626;18.866;2022-08-18T09:57:42;99886.75;;;36.11;24.07
58072;BME280;60383;46.626;18.866;2022-08-18T10:13:14;99904.03;;;36.36;24.15
58072;BME280;60383;46.626;18.866;2022-08-18T10:21:16;99889.59;;;36.11;24.03
58072;BME280;60383;46.626;18.866;2022-08-18T10:23:52;99891.38;;;36.24;24.09
58072;BME280;60383;46.626;18.866;2022-08-18T10:28:57;99872.47;;;36.71;24.07
58072;BME280;60383;46.626;18.866;2022-08-18T10:31:23;99873.72;;;36.40;23.97
58072;BME280;60383;46.626;18.866;2022-08-18T10:39:04;99873.44;;;36.75;23.94
58072;BME280;60383;46.626;18.866;2022-08-18T10:41:30;99869.88;;;36.78;23.57
58072;BME280;60383;46.626;18.866;2022-08-18T10:43:57;99869.09;;;37.11;22.96
58072;BME280;60383;46.626;18.866;2022-08-18T10:46:28;99854.16;;;37.14;22.78
58072;BME280;60383;46.626;18.866;2022-08-18T10:49:14;99852.25;;;37.52;22.54
58072;BME280;60383;46.626;18.866;2022-08-18T10:57:03;99844.19;;;37.79;22.54
58072;BME280;60383;46.626;18.866;2022-08-18T10:59:37;99853.78;;;37.37;23.01
58072;BME280;60383;46.626;18.866;2022-08-18T11:04:35;99844.97;;;36.66;23.84
58072;BME280;60383;46.626;18.866;2022-08-18T11:09:41;99828.66;;;36.97;23.25
58072;BME280;60383;46.626;18.866;2022-08-18T11:12:07;99830.88;;;36.49;23.85
58072;BME280;60383;46.626;18.866;2022-08-18T11:19:51;99821.84;;;37.22;23.63
58072;BME280;60383;46.626;18.866;2022-08-18T11:22:24;99815.25;;;36.55;24.26
58072;BME280;60383;46.626;18.866;2022-08-18T11:24:50;99811.63;;;35.86;25.34
58072;BME280;60383;46.626;18.866;2022-08-18T11:27:33;99824.75;;;35.78;24.54
58072;BME280;60383;46.626;18.866;2022-08-18T11:30:04;99808.50;;;36.38;23.87
58072;BME280;60383;46.626;18.866;2022-08-18T11:42:54;99780.38;;;37.62;22.39
58072;BME280;60383;46.626;18.866;2022-08-18T11:45:22;99779.03;;;37.35;22.76
58072;BME280;60383;46.626;18.866;2022-08-18T11:50:32;99779.50;;;37.24;22.83
58072;BME280;60383;46.626;18.866;2022-08-18T11:53:12;99764.81;;;37.01;23.49
58072;BME280;60383;46.626;18.866;2022-08-18T11:55:37;99764.00;;;37.01;23.83
58072;BME280;60383;46.626;18.866;2022-08-18T11:58:03;99766.16;;;36.83;23.60
58072;BME280;60383;46.626;18.866;2022-08-18T12:03:03;99748.81;;;37.34;23.14
58072;BME280;60383;46.626;18.866;2022-08-18T12:05:39;99732.47;;;37.55;23.07
58072;BME280;60383;46.626;18.866;2022-08-18T12:08:14;99727.81;;;37.51;23.13
58072;BME280;60383;46.626;18.866;2022-08-18T12:10:40;99733.50;;;37.26;23.49
58072;BME280;60383;46.626;18.866;2022-08-18T12:13:06;99727.13;;;37.54;22.77
58072;BME280;60383;46.626;18.866;2022-08-18T12:15:32;99722.66;;;37.32;22.78
58072;BME280;60383;46.626;18.866;2022-08-18T12:17:58;99724.25;;;37.54;23.25
58072;BME280;60383;46.626;18.866;2022-08-18T12:20:24;99724.81;;;37.22;24.00
58072;BME280;60383;46.626;18.866;2022-08-18T12:22:50;99723.06;;;37.67;23.37
58072;BME280;60383;46.626;18.866;2022-08-18T12:25:18;99738.13;;;37.31;22.95
58072;BME280;60383;46.626;18.866;2022-08-18T12:27:43;99736.84;;;36.61;24.20
58072;BME280;60383;46.626;18.866;2022-08-18T12:30:09;99744.03;;;37.01;24.15
58072;BME280;60383;46.626;18.866;2022-08-18T12:32:36;99738.59;;;37.20;23.25
58072;BME280;60383;46.626;18.866;2022-08-18T12:35:02;99746.91;;;37.13;23.19
58072;BME280;60383;46.626;18.866;2022-08-18T12:37:29;99754.72;;;37.04;24.31
58072;BME280;60383;46.626;18.866;2022-08-18T12:39:56;99741.41;;;36.41;23.83
58072;BME280;60383;46.626;18.866;2022-08-18T12:42:22;99740.72;;;36.44;24.12
58072;BME280;60383;46.626;18.866;2022-08-18T12:44:48;99733.59;;;37.17;23.38
58072;BME280;60383;46.626;18.866;2022-08-18T12:47:14;99736.50;;;37.42;23.10
58072;BME280;60383;46.626;18.866;2022-08-18T12:49:40;99731.41;;;37.48;22.97
58072;BME280;60383;46.626;18.866;2022-08-18T12:52:06;99736.13;;;37.56;23.23
58072;BME280;60383;46.626;18.866;2022-08-18T12:54:32;99748.34;;;37.32;23.31
58072;BME280;60383;46.626;18.866;2022-08-18T12:56:58;99747.28;;;37.24;23.30
58072;BME280;60383;46.626;18.866;2022-08-18T12:59:24;99735.44;;;37.47;23.28
58072;BME280;60383;46.626;18.866;2022-08-18T13:01:50;99745.34;;;37.03;23.69
58072;BME280;60383;46.626;18.866;2022-08-18T13:04:16;99733.91;;;36.91;24.94
58072;BME280;60383;46.626;18.866;2022-08-18T13:06:51;99744.09;;;36.37;24.32
58072;BME280;60383;46.626;18.866;2022-08-18T13:09:18;99747.00;;;37.04;23.79
58072;BME280;60383;46.626;18.866;2022-08-18T13:11:43;99742.00;;;37.01;24.22
58072;BME280;60383;46.626;18.866;2022-08-18T13:14:08;99743.69;;;36.69;23.80
58072;BME280;60383;46.626;18.866;2022-08-18T13:16:35;99730.59;;;37.01;23.76
58072;BME280;60383;46.626;18.866;2022-08-18T13:19:00;99729.75;;;36.67;23.45
58072;BME280;60383;46.626;18.866;2022-08-18T13:21:26;99731.09;;;36.49;23.85
58072;BME280;60383;46.626;18.866;2022-08-18T13:23:51;99737.28;;;36.84;23.74
58072;BME280;60383;46.626;18.866;2022-08-18T13:26:27;99734.53;;;37.09;21.78
58072;BME280;60383;46.626;18.866;2022-08-18T13:28:52;99740.88;;;37.27;21.14
58072;BME280;60383;46.626;18.866;2022-08-18T13:31:18;99726.91;;;37.01;21.81
58072;BME280;60383;46.626;18.866;2022-08-18T13:33:43;99724.28;;;36.96;21.95
58072;BME280;60383;46.626;18.866;2022-08-18T13:36:08;99735.50;;;37.25;22.11
58072;BME280;60383;46.626;18.866;2022-08-18T13:38:34;99740.53;;;37.41;21.40
58072;BME280;60383;46.626;18.866;2022-08-18T13:40:59;99738.53;;;37.54;21.83
58072;BME280;60383;46.626;18.866;2022-08-18T13:43:33;99744.38;;;37.58;21.51
58072;BME280;60383;46.626;18.866;2022-08-18T13:46:00;99735.16;;;37.77;20.96
58072;BME280;60383;46.626;18.866;2022-08-18T13:48:25;99744.22;;;37.79;21.16
58072;BME280;60383;46.626;18.866;2022-08-18T13:50:54;99741.34;;;37.42;21.77
58072;BME280;60383;46.626;18.866;2022-08-18T13:53:20;99742.94;;;37.51;21.58
58072;BME280;60383;46.626;18.866;2022-08-18T13:55:46;99737.91;;;37.61;20.95
58072;BME280;60383;46.626;18.866;2022-08-18T13:58:11;99745.38;;;37.28;21.28
58072;BME280;60383;46.626;18.866;2022-08-18T14:00:37;99741.13;;;37.34;21.41
58072;BME280;60383;46.626;18.866;2022-08-18T14:03:03;99741.00;;;37.31;21.65
58072;BME280;60383;46.626;18.866;2022-08-18T14:05:28;99750.66;;;37.38;21.63
58072;BME280;60383;46.626;18.866;2022-08-18T14:07:55;99758.16;;;37.55;21.93
58072;BME280;60383;46.626;18.866;2022-08-18T14:10:20;99762.91;;;37.51;21.78
58072;BME280;60383;46.626;18.866;2022-08-18T14:12:46;99756.47;;;37.67;21.64
58072;BME280;60383;46.626;18.866;2022-08-18T14:15:11;99759.09;;;37.47;21.83
58072;BME280;60383;46.626;18.866;2022-08-18T14:17:37;99752.69;;;37.63;21.34
58072;BME280;60383;46.626;18.866;2022-08-18T14:20:03;99755.53;;;37.63;20.93
58072;BME280;60383;46.626;18.866;2022-08-18T14:22:55;99755.28;;;37.80;20.53
58072;BME280;60383;46.626;18.866;2022-08-18T14:25:39;99753.41;;;37.72;20.57
58072;BME280;60383;46.626;18.866;2022-08-18T14:28:23;99763.16;;;37.59;20.64
58072;BME280;60383;46.626;18.866;2022-08-18T14:30:48;99763.16;;;37.59;21.02
58072;BME280;60383;46.626;18.866;2022-08-18T14:33:16;99763.38;;;37.66;20.83
58072;BME280;60383;46.626;18.866;2022-08-18T14:35:42;99760.63;;;37.69;20.73
58072;BME280;60383;46.626;18.866;2022-08-18T14:38:08;99761.59;;;37.74;20.56
58072;BME280;60383;46.626;18.866;2022-08-18T14:40:33;99758.16;;;37.68;20.28
58072;BME280;60383;46.626;18.866;2022-08-18T14:42:58;99763.75;;;37.64;20.14
58072;BME280;60383;46.626;18.866;2022-08-18T14:45:25;99751.63;;;37.55;20.82
58072;BME280;60383;46.626;18.866;2022-08-18T14:47:51;99761.81;;;37.56;20.76
58072;BME280;60383;46.626;18.866;2022-08-18T14:50:18;99762.81;;;37.60;20.82
58072;BME280;60383;46.626;18.866;2022-08-18T14:52:44;99769.09;;;37.53;20.61
58072;BME280;60383;46.626;18.866;2022-08-18T14:55:09;99761.50;;;37.58;20.74
58072;BME280;60383;46.626;18.866;2022-08-18T14:57:36;99764.69;;;37.56;20.80
58072;BME280;60383;46.626;18.866;2022-08-18T15:00:03;99753.50;;;37.51;20.83
58072;BME280;60383;46.626;18.866;2022-08-18T15:02:29;99755.31;;;37.55;20.72
58072;BME280;60383;46.626;18.866;2022-08-18T15:04:54;99746.97;;;37.50;21.12
58072;BME280;60383;46.626;18.866;2022-08-18T15:07:20;99756.47;;;37.42;21.06
58072;BME280;60383;46.626;18.866;2022-08-18T15:09:46;99760.25;;;37.34;21.45
58072;BME280;60383;46.626;18.866;2022-08-18T15:12:12;99758.81;;;37.28;21.39
58072;BME280;60383;46.626;18.866;2022-08-18T15:14:41;99770.91;;;37.12;21.44
58072;BME280;60383;46.626;18.866;2022-08-18T15:17:06;99770.41;;;36.98;22.12
58072;BME280;60383;46.626;18.866;2022-08-18T15:19:31;99780.16;;;36.97;22.29
58072;BME280;60383;46.626;18.866;2022-08-18T15:21:57;99776.63;;;36.79;22.62
58072;BME280;60383;46.626;18.866;2022-08-18T15:24:41;99776.63;;;36.79;22.46
58072;BME280;60383;46.626;18.866;2022-08-18T15:27:35;99781.69;;;36.73;22.60
58072;BME280;60383;46.626;18.866;2022-08-18T15:30:05;99782.78;;;36.47;22.55
58072;BME280;60383;46.626;18.866;2022-08-18T15:32:31;99781.75;;;36.52;22.92
58072;BME280;60383;46.626;18.866;2022-08-18T15:34:56;99790.63;;;36.50;22.83